Show Low, AZ (85901)

06:47 MST le 19 septembre 2014 (GMT -0700)
Torreon | Change Station
CLOSE
Current Station
Stations météorologiques personnelles
Location: Show Low, AZ
Altitude: 6391 ft
Stations météo à proximité

Alt. 6391 ft 34.25 °N, 110.09 °W | Updated 8 minutes ago

Nuageux
Nuageux
58.5 ° F
Paraît 58.5 ° F
N
0.0
Vent Variable Vent de SO
Gusts 0.0 mph

Aujourd'hui
Haut(e) -- | Bas -- ° F
--% Risque de précip.
Hier
Haut(e) -- | Bas -- ° F
Precip. -- pouce
6:06 AM 6:21 PM
Lune descendante, 19% visible
Pression 30.16 pouce
Visibilité 10.0 Miles terrestres
Nuages Nuageux 4900 ft
Point de rosée 58 ° F
Humidité 98%
Précipitations 0.00 pouce
Profondeur de la couche neigeuse 0 in , 0 in , 19 in
UV 0 sur 12
Pollen 5.50 sur 12
Qualité de l'air Non disponible.
Flu Activity Non disponible.
METAR KSOW 191335Z AUTO 00000KT 10SM BKN049 14/13 A3016 RMK AO2

More Conditions Fewer Conditions

Pression 30.16 pouce
Visibilité 10.0 Miles terrestres
Nuages Nuageux 4900 ft
Point de rosée 58 ° F
Humidité 98%
Précipitations 0.00 pouce
Profondeur de la couche neigeuse 0 in , 0 in , 19 in
UV 0 sur 12
Pollen 5.50 sur 12
Qualité de l'air Non disponible.
Flu Activity Non disponible.
METAR KSOW 191335Z AUTO 00000KT 10SM BKN049 14/13 A3016 RMK AO2

More Conditions Fewer Conditions

10-Day Weather Forecast

Almanac

Astronomie

Sep. 19, 2014 Lever Coucher
Temps réel 06:06 MST 18:21 MST
Crépuscule civil 05:41 MST 18:46 MST
Crépuscule nautique 05:11 MST 19:15 MST
Crépuscule astronomique 04:42 MST 19:45 MST
Lune 02:03 MST 15:44 MST
Durée de lumière visible 13h 04m
Longueur du jour
12h 14m
Tomorrow will be 2m 6s shorter.
Lune descendante, 19% of the Moon is Illuminated
Aujourd'hui
Lune descendante
Sep 24
Nouveau
Oct 1
Premier quartier
Oct 8
Pleine lune
Oct 15
Dernier quartier

Extrêmes aujourd'hui

State Highs State Lows

Community

WunderPhotos

Upload Photos

1,754,608 Photos téléchargées !

WunderBlogs® & News

Nearby

Épaisseur de neige

Station Depth Altitude
Promontory 0 in 7930 ft
Wildcat 0 in 7850 ft
Beaver Head 19 in 7990 ft
White Horse Lake 0 in 7180 ft
Snowslide Canyon 0 in 9730 ft

Activité sismique

Ville Distance Mag. Time & Date
No recent earthquake activity has been reported nearby.
Minimum magnitude displayed is 2.5.

Températures des eaux côtières

Lieu Température
Aucun rapport de station

Stations météo à proximité